sensor_id;sensor_type;location;lat;lon;timestamp;temperature;humidity
42261;DHT22;27926;48.062;7.474;2023-12-22T00:00:03;10.40;99.90
42261;DHT22;27926;48.062;7.474;2023-12-22T00:02:28;10.50;99.90
42261;DHT22;27926;48.062;7.474;2023-12-22T00:04:53;10.50;99.90
42261;DHT22;27926;48.062;7.474;2023-12-22T00:07:18;10.50;99.90
42261;DHT22;27926;48.062;7.474;2023-12-22T00:09:44;10.60;99.90
42261;DHT22;27926;48.062;7.474;2023-12-22T00:12:08;10.60;99.90
42261;DHT22;27926;48.062;7.474;2023-12-22T00:14:33;10.50;99.90
42261;DHT22;27926;48.062;7.474;2023-12-22T00:16:57;10.50;99.90
42261;DHT22;27926;48.062;7.474;2023-12-22T00:19:22;10.50;99.90
42261;DHT22;27926;48.062;7.474;2023-12-22T00:21:47;10.50;99.90
42261;DHT22;27926;48.062;7.474;2023-12-22T00:24:11;10.60;99.90
42261;DHT22;27926;48.062;7.474;2023-12-22T00:26:36;10.60;99.90
42261;DHT22;27926;48.062;7.474;2023-12-22T00:29:00;10.60;99.90
42261;DHT22;27926;48.062;7.474;2023-12-22T00:31:25;10.60;99.90
42261;DHT22;27926;48.062;7.474;2023-12-22T00:33:49;10.50;99.90
42261;DHT22;27926;48.062;7.474;2023-12-22T00:36:14;10.40;99.90
42261;DHT22;27926;48.062;7.474;2023-12-22T00:38:38;10.40;99.90
42261;DHT22;27926;48.062;7.474;2023-12-22T00:41:03;10.30;99.90
42261;DHT22;27926;48.062;7.474;2023-12-22T00:43:27;10.30;99.90
42261;DHT22;27926;48.062;7.474;2023-12-22T00:45:52;10.30;99.90
42261;DHT22;27926;48.062;7.474;2023-12-22T00:48:16;10.30;99.90
42261;DHT22;27926;48.062;7.474;2023-12-22T00:50:41;10.30;99.90
42261;DHT22;27926;48.062;7.474;2023-12-22T00:53:05;10.30;99.90
42261;DHT22;27926;48.062;7.474;2023-12-22T00:55:30;10.20;99.90
42261;DHT22;27926;48.062;7.474;2023-12-22T00:57:54;10.20;99.90
42261;DHT22;27926;48.062;7.474;2023-12-22T01:00:19;10.20;99.90
42261;DHT22;27926;48.062;7.474;2023-12-22T01:02:43;10.20;99.90
42261;DHT22;27926;48.062;7.474;2023-12-22T01:05:08;10.30;99.90
42261;DHT22;27926;48.062;7.474;2023-12-22T01:07:32;10.30;99.90
42261;DHT22;27926;48.062;7.474;2023-12-22T01:09:57;10.40;99.90
42261;DHT22;27926;48.062;7.474;2023-12-22T01:12:26;10.50;99.90
42261;DHT22;27926;48.062;7.474;2023-12-22T01:14:50;10.50;99.90
42261;DHT22;27926;48.062;7.474;2023-12-22T01:17:16;10.50;99.90
42261;DHT22;27926;48.062;7.474;2023-12-22T01:19:40;10.50;99.90
42261;DHT22;27926;48.062;7.474;2023-12-22T01:22:05;10.50;99.90
42261;DHT22;27926;48.062;7.474;2023-12-22T01:24:29;10.50;99.90
42261;DHT22;27926;48.062;7.474;2023-12-22T01:26:54;10.70;99.90
42261;DHT22;27926;48.062;7.474;2023-12-22T01:29:18;10.60;99.90
42261;DHT22;27926;48.062;7.474;2023-12-22T01:31:43;10.60;99.90
42261;DHT22;27926;48.062;7.474;2023-12-22T01:34:07;10.50;99.90
42261;DHT22;27926;48.062;7.474;2023-12-22T01:36:33;10.40;99.90
42261;DHT22;27926;48.062;7.474;2023-12-22T01:38:58;10.40;99.90
42261;DHT22;27926;48.062;7.474;2023-12-22T01:41:22;10.30;99.90
42261;DHT22;27926;48.062;7.474;2023-12-22T01:43:47;10.40;99.90
42261;DHT22;27926;48.062;7.474;2023-12-22T01:46:11;10.30;99.90
42261;DHT22;27926;48.062;7.474;2023-12-22T01:48:36;10.30;99.90
42261;DHT22;27926;48.062;7.474;2023-12-22T01:51:01;10.20;99.90
42261;DHT22;27926;48.062;7.474;2023-12-22T01:53:26;10.20;99.90
42261;DHT22;27926;48.062;7.474;2023-12-22T01:55:50;10.20;99.90
42261;DHT22;27926;48.062;7.474;2023-12-22T01:58:15;10.20;99.90
42261;DHT22;27926;48.062;7.474;2023-12-22T02:00:40;10.30;99.90
42261;DHT22;27926;48.062;7.474;2023-12-22T02:03:05;10.30;99.90
42261;DHT22;27926;48.062;7.474;2023-12-22T02:05:29;10.30;99.90
42261;DHT22;27926;48.062;7.474;2023-12-22T02:07:54;10.30;99.90
42261;DHT22;27926;48.062;7.474;2023-12-22T02:10:18;10.30;99.90
42261;DHT22;27926;48.062;7.474;2023-12-22T02:12:43;10.20;99.90
42261;DHT22;27926;48.062;7.474;2023-12-22T02:15:08;10.10;99.90
42261;DHT22;27926;48.062;7.474;2023-12-22T02:17:34;10.00;99.90
42261;DHT22;27926;48.062;7.474;2023-12-22T02:20:03;9.90;99.90
42261;DHT22;27926;48.062;7.474;2023-12-22T02:22:28;9.80;99.90
42261;DHT22;27926;48.062;7.474;2023-12-22T02:24:53;9.70;99.90
42261;DHT22;27926;48.062;7.474;2023-12-22T02:30:08;9.60;99.90
42261;DHT22;27926;48.062;7.474;2023-12-22T02:32:35;9.60;99.90
42261;DHT22;27926;48.062;7.474;2023-12-22T02:35:01;9.50;99.90
42261;DHT22;27926;48.062;7.474;2023-12-22T02:37:27;9.60;99.90
42261;DHT22;27926;48.062;7.474;2023-12-22T02:39:52;9.60;99.90
42261;DHT22;27926;48.062;7.474;2023-12-22T02:42:17;9.60;99.90
42261;DHT22;27926;48.062;7.474;2023-12-22T02:44:44;9.60;99.90
42261;DHT22;27926;48.062;7.474;2023-12-22T02:47:08;9.70;99.90
42261;DHT22;27926;48.062;7.474;2023-12-22T02:49:33;9.70;99.90
42261;DHT22;27926;48.062;7.474;2023-12-22T02:51:57;9.70;99.90
42261;DHT22;27926;48.062;7.474;2023-12-22T02:54:22;9.70;99.90
42261;DHT22;27926;48.062;7.474;2023-12-22T02:56:46;9.80;99.90
42261;DHT22;27926;48.062;7.474;2023-12-22T02:59:11;9.80;99.90
42261;DHT22;27926;48.062;7.474;2023-12-22T03:01:36;9.90;99.90
42261;DHT22;27926;48.062;7.474;2023-12-22T03:04:00;10.00;99.90
42261;DHT22;27926;48.062;7.474;2023-12-22T03:06:25;10.10;99.90
42261;DHT22;27926;48.062;7.474;2023-12-22T03:08:49;10.10;99.90
42261;DHT22;27926;48.062;7.474;2023-12-22T03:11:14;10.10;99.90
42261;DHT22;27926;48.062;7.474;2023-12-22T03:13:38;10.10;99.90
42261;DHT22;27926;48.062;7.474;2023-12-22T03:16:03;10.20;99.90
42261;DHT22;27926;48.062;7.474;2023-12-22T03:18:32;10.20;99.90
42261;DHT22;27926;48.062;7.474;2023-12-22T03:20:56;10.30;99.90
42261;DHT22;27926;48.062;7.474;2023-12-22T03:23:21;10.20;99.90
42261;DHT22;27926;48.062;7.474;2023-12-22T03:25:45;10.20;99.90
42261;DHT22;27926;48.062;7.474;2023-12-22T03:28:09;10.10;99.90
42261;DHT22;27926;48.062;7.474;2023-12-22T03:30:34;10.00;99.90
42261;DHT22;27926;48.062;7.474;2023-12-22T03:33:00;10.00;99.90
42261;DHT22;27926;48.062;7.474;2023-12-22T03:35:24;10.00;99.90
42261;DHT22;27926;48.062;7.474;2023-12-22T03:37:49;10.10;99.90
42261;DHT22;27926;48.062;7.474;2023-12-22T03:40:14;10.20;99.90
42261;DHT22;27926;48.062;7.474;2023-12-22T03:42:38;10.10;99.90
42261;DHT22;27926;48.062;7.474;2023-12-22T03:45:03;10.10;99.90
42261;DHT22;27926;48.062;7.474;2023-12-22T03:47:28;10.10;99.90
42261;DHT22;27926;48.062;7.474;2023-12-22T03:49:52;10.00;99.90
42261;DHT22;27926;48.062;7.474;2023-12-22T03:52:17;9.90;99.90
42261;DHT22;27926;48.062;7.474;2023-12-22T03:54:41;9.80;99.90
42261;DHT22;27926;48.062;7.474;2023-12-22T03:57:05;9.70;99.90
42261;DHT22;27926;48.062;7.474;2023-12-22T03:59:30;9.60;99.90
42261;DHT22;27926;48.062;7.474;2023-12-22T04:01:55;9.60;99.90
42261;DHT22;27926;48.062;7.474;2023-12-22T04:04:21;9.60;99.90
42261;DHT22;27926;48.062;7.474;2023-12-22T04:06:51;9.50;99.90
42261;DHT22;27926;48.062;7.474;2023-12-22T04:09:16;9.60;99.90
42261;DHT22;27926;48.062;7.474;2023-12-22T04:11:40;9.60;99.90
42261;DHT22;27926;48.062;7.474;2023-12-22T04:14:05;9.60;99.90
42261;DHT22;27926;48.062;7.474;2023-12-22T04:16:30;9.70;99.90
42261;DHT22;27926;48.062;7.474;2023-12-22T04:18:54;9.70;99.90
42261;DHT22;27926;48.062;7.474;2023-12-22T04:21:19;9.60;99.90
42261;DHT22;27926;48.062;7.474;2023-12-22T04:23:43;9.60;99.90
42261;DHT22;27926;48.062;7.474;2023-12-22T04:26:08;9.70;99.90
42261;DHT22;27926;48.062;7.474;2023-12-22T04:28:32;9.70;99.90
42261;DHT22;27926;48.062;7.474;2023-12-22T04:30:57;9.70;99.90
42261;DHT22;27926;48.062;7.474;2023-12-22T04:33:21;9.70;99.90
42261;DHT22;27926;48.062;7.474;2023-12-22T04:35:46;9.70;99.90
42261;DHT22;27926;48.062;7.474;2023-12-22T04:38:10;9.70;99.90
42261;DHT22;27926;48.062;7.474;2023-12-22T04:40:35;9.80;99.90
42261;DHT22;27926;48.062;7.474;2023-12-22T04:43:00;9.90;99.90
42261;DHT22;27926;48.062;7.474;2023-12-22T04:45:24;10.00;99.90
42261;DHT22;27926;48.062;7.474;2023-12-22T04:47:49;10.10;99.90
42261;DHT22;27926;48.062;7.474;2023-12-22T04:50:13;10.10;99.90
42261;DHT22;27926;48.062;7.474;2023-12-22T04:52:38;10.10;99.90
42261;DHT22;27926;48.062;7.474;2023-12-22T04:55:02;10.00;99.90
42261;DHT22;27926;48.062;7.474;2023-12-22T04:57:27;10.00;99.90
42261;DHT22;27926;48.062;7.474;2023-12-22T04:59:51;9.90;99.90
42261;DHT22;27926;48.062;7.474;2023-12-22T05:02:16;9.80;99.90
42261;DHT22;27926;48.062;7.474;2023-12-22T05:04:42;9.80;99.90
42261;DHT22;27926;48.062;7.474;2023-12-22T05:07:06;9.80;99.90
42261;DHT22;27926;48.062;7.474;2023-12-22T05:09:31;9.80;99.90
42261;DHT22;27926;48.062;7.474;2023-12-22T05:11:56;9.90;99.90
42261;DHT22;27926;48.062;7.474;2023-12-22T05:14:20;9.90;99.90
42261;DHT22;27926;48.062;7.474;2023-12-22T05:16:44;9.80;99.90
42261;DHT22;27926;48.062;7.474;2023-12-22T05:19:09;9.90;99.90
42261;DHT22;27926;48.062;7.474;2023-12-22T05:21:33;9.90;99.90
42261;DHT22;27926;48.062;7.474;2023-12-22T05:23:58;9.90;99.90
42261;DHT22;27926;48.062;7.474;2023-12-22T05:26:23;9.80;99.90
42261;DHT22;27926;48.062;7.474;2023-12-22T05:28:48;9.90;99.90
42261;DHT22;27926;48.062;7.474;2023-12-22T05:31:15;9.90;99.90
42261;DHT22;27926;48.062;7.474;2023-12-22T05:33:40;9.90;99.90
42261;DHT22;27926;48.062;7.474;2023-12-22T05:36:04;9.90;99.90
42261;DHT22;27926;48.062;7.474;2023-12-22T05:38:29;9.90;99.90
42261;DHT22;27926;48.062;7.474;2023-12-22T05:40:54;9.90;99.90
42261;DHT22;27926;48.062;7.474;2023-12-22T05:43:18;9.80;99.90
42261;DHT22;27926;48.062;7.474;2023-12-22T05:45:43;9.80;99.90
42261;DHT22;27926;48.062;7.474;2023-12-22T05:48:07;9.70;99.90
42261;DHT22;27926;48.062;7.474;2023-12-22T05:50:32;9.70;99.90
42261;DHT22;27926;48.062;7.474;2023-12-22T05:52:57;9.70;99.90
42261;DHT22;27926;48.062;7.474;2023-12-22T05:55:21;9.70;99.90
42261;DHT22;27926;48.062;7.474;2023-12-22T05:57:46;9.70;99.90
42261;DHT22;27926;48.062;7.474;2023-12-22T06:00:11;9.60;99.90
42261;DHT22;27926;48.062;7.474;2023-12-22T06:02:35;9.60;99.90
42261;DHT22;27926;48.062;7.474;2023-12-22T06:05:00;9.60;99.90
42261;DHT22;27926;48.062;7.474;2023-12-22T06:07:24;9.50;99.90
42261;DHT22;27926;48.062;7.474;2023-12-22T06:09:49;9.40;99.90
42261;DHT22;27926;48.062;7.474;2023-12-22T06:12:13;9.40;99.90
42261;DHT22;27926;48.062;7.474;2023-12-22T06:14:38;9.40;99.90
42261;DHT22;27926;48.062;7.474;2023-12-22T06:17:03;9.40;99.90
42261;DHT22;27926;48.062;7.474;2023-12-22T06:19:27;9.50;99.90
42261;DHT22;27926;48.062;7.474;2023-12-22T06:21:54;9.60;99.90
42261;DHT22;27926;48.062;7.474;2023-12-22T06:24:19;9.60;99.90
42261;DHT22;27926;48.062;7.474;2023-12-22T06:26:43;9.60;99.90
42261;DHT22;27926;48.062;7.474;2023-12-22T06:29:08;9.50;99.90
42261;DHT22;27926;48.062;7.474;2023-12-22T06:31:33;9.40;99.90
42261;DHT22;27926;48.062;7.474;2023-12-22T06:33:58;9.30;99.90
42261;DHT22;27926;48.062;7.474;2023-12-22T06:36:26;9.30;99.90
42261;DHT22;27926;48.062;7.474;2023-12-22T06:38:51;9.40;99.90
42261;DHT22;27926;48.062;7.474;2023-12-22T06:41:22;9.40;99.90
42261;DHT22;27926;48.062;7.474;2023-12-22T06:43:47;9.40;99.90
42261;DHT22;27926;48.062;7.474;2023-12-22T06:46:15;9.30;99.90
42261;DHT22;27926;48.062;7.474;2023-12-22T06:48:40;9.30;99.90
42261;DHT22;27926;48.062;7.474;2023-12-22T06:51:05;9.20;99.90
42261;DHT22;27926;48.062;7.474;2023-12-22T06:53:30;9.20;99.90
42261;DHT22;27926;48.062;7.474;2023-12-22T06:55:54;9.10;99.90
42261;DHT22;27926;48.062;7.474;2023-12-22T06:58:19;9.00;99.90
42261;DHT22;27926;48.062;7.474;2023-12-22T07:00:45;9.00;99.90
42261;DHT22;27926;48.062;7.474;2023-12-22T07:03:10;8.90;99.90
42261;DHT22;27926;48.062;7.474;2023-12-22T07:05:34;8.80;99.90
42261;DHT22;27926;48.062;7.474;2023-12-22T07:08:00;8.70;99.90
42261;DHT22;27926;48.062;7.474;2023-12-22T07:10:25;8.60;99.90
42261;DHT22;27926;48.062;7.474;2023-12-22T07:12:49;8.50;99.90
42261;DHT22;27926;48.062;7.474;2023-12-22T07:15:14;8.50;99.90
42261;DHT22;27926;48.062;7.474;2023-12-22T07:17:38;8.50;99.90
42261;DHT22;27926;48.062;7.474;2023-12-22T07:20:03;8.40;99.90
42261;DHT22;27926;48.062;7.474;2023-12-22T07:22:28;8.40;99.90
42261;DHT22;27926;48.062;7.474;2023-12-22T07:24:53;8.30;99.90
42261;DHT22;27926;48.062;7.474;2023-12-22T07:27:17;8.30;99.90
42261;DHT22;27926;48.062;7.474;2023-12-22T07:29:42;8.30;99.90
42261;DHT22;27926;48.062;7.474;2023-12-22T07:32:06;8.40;99.90
42261;DHT22;27926;48.062;7.474;2023-12-22T07:34:30;8.30;99.90
42261;DHT22;27926;48.062;7.474;2023-12-22T07:36:55;8.30;99.90
42261;DHT22;27926;48.062;7.474;2023-12-22T07:39:20;8.30;99.90
42261;DHT22;27926;48.062;7.474;2023-12-22T07:41:44;8.30;99.90
42261;DHT22;27926;48.062;7.474;2023-12-22T07:44:09;8.30;99.90
42261;DHT22;27926;48.062;7.474;2023-12-22T07:46:33;8.20;99.90
42261;DHT22;27926;48.062;7.474;2023-12-22T07:48:58;8.20;99.90
42261;DHT22;27926;48.062;7.474;2023-12-22T07:51:23;8.20;99.90
42261;DHT22;27926;48.062;7.474;2023-12-22T07:53:47;8.20;99.90
42261;DHT22;27926;48.062;7.474;2023-12-22T07:56:12;8.20;99.90
42261;DHT22;27926;48.062;7.474;2023-12-22T07:58:36;8.20;99.90
42261;DHT22;27926;48.062;7.474;2023-12-22T08:01:02;8.20;99.90
42261;DHT22;27926;48.062;7.474;2023-12-22T08:03:27;8.20;99.90
42261;DHT22;27926;48.062;7.474;2023-12-22T08:05:52;8.20;99.90
42261;DHT22;27926;48.062;7.474;2023-12-22T08:08:16;8.20;99.90
42261;DHT22;27926;48.062;7.474;2023-12-22T08:10:41;8.20;99.90
42261;DHT22;27926;48.062;7.474;2023-12-22T08:13:05;8.30;99.90
42261;DHT22;27926;48.062;7.474;2023-12-22T08:15:30;8.30;99.90
42261;DHT22;27926;48.062;7.474;2023-12-22T08:17:56;8.30;99.90
42261;DHT22;27926;48.062;7.474;2023-12-22T08:20:21;8.30;99.90
42261;DHT22;27926;48.062;7.474;2023-12-22T08:22:46;8.30;99.90
42261;DHT22;27926;48.062;7.474;2023-12-22T08:25:11;8.30;99.90
42261;DHT22;27926;48.062;7.474;2023-12-22T08:27:35;8.30;99.90
42261;DHT22;27926;48.062;7.474;2023-12-22T08:30:00;8.30;99.90
42261;DHT22;27926;48.062;7.474;2023-12-22T08:32:24;8.20;99.90
42261;DHT22;27926;48.062;7.474;2023-12-22T08:34:49;8.20;99.90
42261;DHT22;27926;48.062;7.474;2023-12-22T08:37:13;8.20;99.90
42261;DHT22;27926;48.062;7.474;2023-12-22T08:39:38;8.20;99.90
42261;DHT22;27926;48.062;7.474;2023-12-22T08:42:02;8.10;99.90
42261;DHT22;27926;48.062;7.474;2023-12-22T08:44:27;8.00;99.90
42261;DHT22;27926;48.062;7.474;2023-12-22T08:46:51;8.00;99.90
42261;DHT22;27926;48.062;7.474;2023-12-22T08:49:16;8.00;99.90
42261;DHT22;27926;48.062;7.474;2023-12-22T08:51:40;8.00;99.90
42261;DHT22;27926;48.062;7.474;2023-12-22T08:54:05;8.00;99.90
42261;DHT22;27926;48.062;7.474;2023-12-22T08:56:30;8.10;99.90
42261;DHT22;27926;48.062;7.474;2023-12-22T08:58:54;8.10;99.90
42261;DHT22;27926;48.062;7.474;2023-12-22T09:01:19;8.10;99.90
42261;DHT22;27926;48.062;7.474;2023-12-22T09:03:44;8.10;99.90
42261;DHT22;27926;48.062;7.474;2023-12-22T09:06:11;8.10;99.90
42261;DHT22;27926;48.062;7.474;2023-12-22T09:08:37;8.10;99.90
42261;DHT22;27926;48.062;7.474;2023-12-22T09:11:03;8.20;99.90
42261;DHT22;27926;48.062;7.474;2023-12-22T09:13:27;8.20;99.90
42261;DHT22;27926;48.062;7.474;2023-12-22T09:15:52;8.30;99.90
42261;DHT22;27926;48.062;7.474;2023-12-22T09:18:17;8.30;99.90
42261;DHT22;27926;48.062;7.474;2023-12-22T09:20:42;8.40;99.90
42261;DHT22;27926;48.062;7.474;2023-12-22T09:23:08;8.50;99.90
42261;DHT22;27926;48.062;7.474;2023-12-22T09:25:34;8.50;99.90
42261;DHT22;27926;48.062;7.474;2023-12-22T09:27:58;8.60;99.90
42261;DHT22;27926;48.062;7.474;2023-12-22T09:30:24;8.70;99.90
42261;DHT22;27926;48.062;7.474;2023-12-22T09:32:48;8.70;99.90
42261;DHT22;27926;48.062;7.474;2023-12-22T09:35:13;8.70;99.90
42261;DHT22;27926;48.062;7.474;2023-12-22T09:37:38;8.70;99.90
42261;DHT22;27926;48.062;7.474;2023-12-22T09:40:04;8.60;99.90
42261;DHT22;27926;48.062;7.474;2023-12-22T09:42:31;8.50;99.90
42261;DHT22;27926;48.062;7.474;2023-12-22T09:44:56;8.50;99.90
42261;DHT22;27926;48.062;7.474;2023-12-22T09:47:23;8.40;99.90
42261;DHT22;27926;48.062;7.474;2023-12-22T09:49:48;8.40;99.90
42261;DHT22;27926;48.062;7.474;2023-12-22T09:52:13;8.40;99.90
42261;DHT22;27926;48.062;7.474;2023-12-22T09:54:38;8.30;99.90
42261;DHT22;27926;48.062;7.474;2023-12-22T09:57:05;8.30;99.90
42261;DHT22;27926;48.062;7.474;2023-12-22T09:59:29;8.30;99.90
42261;DHT22;27926;48.062;7.474;2023-12-22T10:01:54;8.30;99.90
42261;DHT22;27926;48.062;7.474;2023-12-22T10:04:19;8.30;99.90
42261;DHT22;27926;48.062;7.474;2023-12-22T10:06:44;8.30;99.90
42261;DHT22;27926;48.062;7.474;2023-12-22T10:09:11;8.30;99.90
42261;DHT22;27926;48.062;7.474;2023-12-22T10:11:39;8.30;99.90
42261;DHT22;27926;48.062;7.474;2023-12-22T10:14:03;8.40;99.90
42261;DHT22;27926;48.062;7.474;2023-12-22T10:16:29;8.40;99.90
42261;DHT22;27926;48.062;7.474;2023-12-22T10:18:54;8.40;99.90
42261;DHT22;27926;48.062;7.474;2023-12-22T10:21:18;8.40;99.90
42261;DHT22;27926;48.062;7.474;2023-12-22T10:23:43;8.50;99.90
42261;DHT22;27926;48.062;7.474;2023-12-22T10:26:10;8.50;99.90
42261;DHT22;27926;48.062;7.474;2023-12-22T10:28:35;8.50;99.90
42261;DHT22;27926;48.062;7.474;2023-12-22T10:30:59;8.50;99.90
42261;DHT22;27926;48.062;7.474;2023-12-22T10:33:30;8.50;99.90
42261;DHT22;27926;48.062;7.474;2023-12-22T10:35:54;8.60;99.90
42261;DHT22;27926;48.062;7.474;2023-12-22T10:38:19;8.60;99.90
42261;DHT22;27926;48.062;7.474;2023-12-22T10:40:45;8.60;99.90
42261;DHT22;27926;48.062;7.474;2023-12-22T10:43:11;8.60;99.90
42261;DHT22;27926;48.062;7.474;2023-12-22T10:45:35;8.70;99.90
42261;DHT22;27926;48.062;7.474;2023-12-22T10:48:00;8.60;99.90
42261;DHT22;27926;48.062;7.474;2023-12-22T10:50:26;8.70;99.90
42261;DHT22;27926;48.062;7.474;2023-12-22T10:52:52;8.70;99.90
42261;DHT22;27926;48.062;7.474;2023-12-22T10:55:17;8.70;99.90
42261;DHT22;27926;48.062;7.474;2023-12-22T10:57:42;8.70;99.90
42261;DHT22;27926;48.062;7.474;2023-12-22T11:00:08;8.70;99.90
42261;DHT22;27926;48.062;7.474;2023-12-22T11:02:34;8.70;99.90
42261;DHT22;27926;48.062;7.474;2023-12-22T11:05:03;8.70;99.90
42261;DHT22;27926;48.062;7.474;2023-12-22T11:07:34;8.70;99.90
42261;DHT22;27926;48.062;7.474;2023-12-22T11:10:03;8.70;99.90
42261;DHT22;27926;48.062;7.474;2023-12-22T11:12:33;8.70;99.90
42261;DHT22;27926;48.062;7.474;2023-12-22T11:14:59;8.70;99.90
42261;DHT22;27926;48.062;7.474;2023-12-22T11:17:24;8.80;99.90
42261;DHT22;27926;48.062;7.474;2023-12-22T11:19:50;8.80;99.90
42261;DHT22;27926;48.062;7.474;2023-12-22T11:22:16;8.80;99.90
42261;DHT22;27926;48.062;7.474;2023-12-22T11:24:40;8.90;99.90
42261;DHT22;27926;48.062;7.474;2023-12-22T11:27:05;9.00;99.90
42261;DHT22;27926;48.062;7.474;2023-12-22T11:29:30;9.00;99.90
42261;DHT22;27926;48.062;7.474;2023-12-22T11:31:55;9.00;99.90
42261;DHT22;27926;48.062;7.474;2023-12-22T11:34:22;9.00;99.90
42261;DHT22;27926;48.062;7.474;2023-12-22T11:36:48;9.00;99.90
42261;DHT22;27926;48.062;7.474;2023-12-22T11:39:14;9.00;99.90
42261;DHT22;27926;48.062;7.474;2023-12-22T11:41:38;9.00;99.90
42261;DHT22;27926;48.062;7.474;2023-12-22T11:44:04;9.00;99.90
42261;DHT22;27926;48.062;7.474;2023-12-22T11:46:29;9.00;99.90
42261;DHT22;27926;48.062;7.474;2023-12-22T11:48:54;9.00;99.90
42261;DHT22;27926;48.062;7.474;2023-12-22T11:51:19;9.00;99.90
42261;DHT22;27926;48.062;7.474;2023-12-22T11:53:45;9.10;99.90
42261;DHT22;27926;48.062;7.474;2023-12-22T11:56:10;9.10;99.90
42261;DHT22;27926;48.062;7.474;2023-12-22T11:58:35;9.10;99.90
42261;DHT22;27926;48.062;7.474;2023-12-22T12:01:00;9.20;99.90
42261;DHT22;27926;48.062;7.474;2023-12-22T12:03:25;9.20;99.90
42261;DHT22;27926;48.062;7.474;2023-12-22T12:05:52;9.20;99.90
42261;DHT22;27926;48.062;7.474;2023-12-22T12:08:34;9.30;99.90
42261;DHT22;27926;48.062;7.474;2023-12-22T12:10:58;9.30;99.90
42261;DHT22;27926;48.062;7.474;2023-12-22T12:13:25;9.30;99.90
42261;DHT22;27926;48.062;7.474;2023-12-22T12:15:52;9.40;99.90
42261;DHT22;27926;48.062;7.474;2023-12-22T12:18:17;9.40;99.90
42261;DHT22;27926;48.062;7.474;2023-12-22T12:20:45;9.50;99.90
42261;DHT22;27926;48.062;7.474;2023-12-22T12:23:10;9.50;99.90
42261;DHT22;27926;48.062;7.474;2023-12-22T12:25:34;9.60;99.90
42261;DHT22;27926;48.062;7.474;2023-12-22T12:30:26;9.70;99.90
42261;DHT22;27926;48.062;7.474;2023-12-22T12:32:51;9.80;99.90
42261;DHT22;27926;48.062;7.474;2023-12-22T12:35:16;9.80;99.90
42261;DHT22;27926;48.062;7.474;2023-12-22T12:37:42;9.90;99.90
42261;DHT22;27926;48.062;7.474;2023-12-22T12:40:08;9.90;99.90
42261;DHT22;27926;48.062;7.474;2023-12-22T12:42:35;9.80;99.90
42261;DHT22;27926;48.062;7.474;2023-12-22T12:45:00;9.80;99.90
42261;DHT22;27926;48.062;7.474;2023-12-22T12:47:25;9.80;99.90
42261;DHT22;27926;48.062;7.474;2023-12-22T12:49:56;9.70;99.90
42261;DHT22;27926;48.062;7.474;2023-12-22T12:52:23;9.70;99.90
42261;DHT22;27926;48.062;7.474;2023-12-22T12:54:49;9.70;99.90
42261;DHT22;27926;48.062;7.474;2023-12-22T12:57:15;9.70;99.90
42261;DHT22;27926;48.062;7.474;2023-12-22T12:59:40;9.70;99.90
42261;DHT22;27926;48.062;7.474;2023-12-22T13:02:08;9.70;99.90
42261;DHT22;27926;48.062;7.474;2023-12-22T13:04:36;9.70;99.90
42261;DHT22;27926;48.062;7.474;2023-12-22T13:07:02;9.70;99.90
42261;DHT22;27926;48.062;7.474;2023-12-22T13:09:31;9.70;99.90
42261;DHT22;27926;48.062;7.474;2023-12-22T13:11:55;9.70;99.90
42261;DHT22;27926;48.062;7.474;2023-12-22T13:14:23;9.70;99.90
42261;DHT22;27926;48.062;7.474;2023-12-22T13:16:49;9.70;99.90
42261;DHT22;27926;48.062;7.474;2023-12-22T13:19:13;9.70;99.90
42261;DHT22;27926;48.062;7.474;2023-12-22T13:21:38;9.70;99.90
42261;DHT22;27926;48.062;7.474;2023-12-22T13:24:15;9.70;99.90
42261;DHT22;27926;48.062;7.474;2023-12-22T13:26:40;9.60;99.90
42261;DHT22;27926;48.062;7.474;2023-12-22T13:29:05;9.60;99.90
42261;DHT22;27926;48.062;7.474;2023-12-22T13:31:30;9.60;99.90
42261;DHT22;27926;48.062;7.474;2023-12-22T13:33:55;9.50;99.90
42261;DHT22;27926;48.062;7.474;2023-12-22T13:36:20;9.50;99.90
42261;DHT22;27926;48.062;7.474;2023-12-22T13:38:46;9.50;99.90
42261;DHT22;27926;48.062;7.474;2023-12-22T13:41:10;9.50;99.90
42261;DHT22;27926;48.062;7.474;2023-12-22T13:43:35;9.50;99.90
42261;DHT22;27926;48.062;7.474;2023-12-22T13:45:59;9.40;99.90
42261;DHT22;27926;48.062;7.474;2023-12-22T13:48:24;9.40;99.90
42261;DHT22;27926;48.062;7.474;2023-12-22T13:50:58;9.40;99.90
42261;DHT22;27926;48.062;7.474;2023-12-22T13:53:23;9.40;99.90
42261;DHT22;27926;48.062;7.474;2023-12-22T13:55:57;9.30;99.90
42261;DHT22;27926;48.062;7.474;2023-12-22T13:58:23;9.40;99.90
42261;DHT22;27926;48.062;7.474;2023-12-22T14:00:47;9.40;99.90
42261;DHT22;27926;48.062;7.474;2023-12-22T14:03:12;9.40;99.90
42261;DHT22;27926;48.062;7.474;2023-12-22T14:05:36;9.30;99.90
42261;DHT22;27926;48.062;7.474;2023-12-22T14:08:02;9.40;99.90
42261;DHT22;27926;48.062;7.474;2023-12-22T14:10:26;9.30;99.90
42261;DHT22;27926;48.062;7.474;2023-12-22T14:12:51;9.40;99.90
42261;DHT22;27926;48.062;7.474;2023-12-22T14:15:15;9.40;99.90
42261;DHT22;27926;48.062;7.474;2023-12-22T14:17:40;9.40;99.90
42261;DHT22;27926;48.062;7.474;2023-12-22T14:20:10;9.40;99.90
42261;DHT22;27926;48.062;7.474;2023-12-22T14:22:36;9.30;99.90
42261;DHT22;27926;48.062;7.474;2023-12-22T14:25:01;9.30;99.90
42261;DHT22;27926;48.062;7.474;2023-12-22T14:27:25;9.30;99.90
42261;DHT22;27926;48.062;7.474;2023-12-22T14:29:50;9.40;99.90
42261;DHT22;27926;48.062;7.474;2023-12-22T14:32:14;9.40;99.90
42261;DHT22;27926;48.062;7.474;2023-12-22T14:34:39;9.40;99.90
42261;DHT22;27926;48.062;7.474;2023-12-22T14:37:04;9.30;99.90
42261;DHT22;27926;48.062;7.474;2023-12-22T14:39:28;9.40;99.90
42261;DHT22;27926;48.062;7.474;2023-12-22T14:41:53;9.40;99.90
42261;DHT22;27926;48.062;7.474;2023-12-22T14:44:18;9.40;99.90
42261;DHT22;27926;48.062;7.474;2023-12-22T14:46:42;9.40;99.90
42261;DHT22;27926;48.062;7.474;2023-12-22T14:49:07;9.40;99.90
42261;DHT22;27926;48.062;7.474;2023-12-22T14:51:38;9.40;99.90
42261;DHT22;27926;48.062;7.474;2023-12-22T14:54:03;9.40;99.90
42261;DHT22;27926;48.062;7.474;2023-12-22T14:56:28;9.30;99.90
42261;DHT22;27926;48.062;7.474;2023-12-22T14:58:53;9.30;99.90
42261;DHT22;27926;48.062;7.474;2023-12-22T15:01:17;9.30;99.90
42261;DHT22;27926;48.062;7.474;2023-12-22T15:03:41;9.30;99.90
42261;DHT22;27926;48.062;7.474;2023-12-22T15:06:06;9.30;99.90
42261;DHT22;27926;48.062;7.474;2023-12-22T15:08:30;9.30;99.90
42261;DHT22;27926;48.062;7.474;2023-12-22T15:10:55;9.30;99.90
42261;DHT22;27926;48.062;7.474;2023-12-22T15:13:19;9.30;99.90
42261;DHT22;27926;48.062;7.474;2023-12-22T15:15:44;9.30;99.90
42261;DHT22;27926;48.062;7.474;2023-12-22T15:18:08;9.20;99.90
42261;DHT22;27926;48.062;7.474;2023-12-22T15:20:33;9.20;99.90
42261;DHT22;27926;48.062;7.474;2023-12-22T15:22:58;9.20;99.90
42261;DHT22;27926;48.062;7.474;2023-12-22T15:25:22;9.20;99.90
42261;DHT22;27926;48.062;7.474;2023-12-22T15:27:47;9.30;99.90
42261;DHT22;27926;48.062;7.474;2023-12-22T15:30:12;9.30;99.90
42261;DHT22;27926;48.062;7.474;2023-12-22T15:32:37;9.30;99.90